sensor_id;sensor_type;location;lat;lon;timestamp;P1;durP1;ratioP1;P2;durP2;ratioP2
21503;SDS011;10913;51.992;9.228;2023-10-08T00:00:44;11.75;;;6.03;;
21503;SDS011;10913;51.992;9.228;2023-10-08T00:03:14;12.30;;;6.22;;
21503;SDS011;10913;51.992;9.228;2023-10-08T00:05:40;13.68;;;6.35;;
21503;SDS011;10913;51.992;9.228;2023-10-08T00:08:05;12.75;;;5.90;;
21503;SDS011;10913;51.992;9.228;2023-10-08T00:10:38;12.73;;;6.45;;
21503;SDS011;10913;51.992;9.228;2023-10-08T00:13:05;13.77;;;5.97;;
21503;SDS011;10913;51.992;9.228;2023-10-08T00:15:33;14.25;;;6.60;;
21503;SDS011;10913;51.992;9.228;2023-10-08T00:17:58;10.50;;;5.78;;
21503;SDS011;10913;51.992;9.228;2023-10-08T00:20:26;13.77;;;6.13;;
21503;SDS011;10913;51.992;9.228;2023-10-08T00:22:53;10.90;;;6.35;;
21503;SDS011;10913;51.992;9.228;2023-10-08T00:25:20;11.90;;;6.20;;
21503;SDS011;10913;51.992;9.228;2023-10-08T00:27:45;13.27;;;6.37;;
21503;SDS011;10913;51.992;9.228;2023-10-08T00:30:14;14.75;;;6.40;;
21503;SDS011;10913;51.992;9.228;2023-10-08T00:32:43;12.90;;;6.35;;
21503;SDS011;10913;51.992;9.228;2023-10-08T00:35:08;12.13;;;6.40;;
21503;SDS011;10913;51.992;9.228;2023-10-08T00:37:39;12.65;;;6.75;;
21503;SDS011;10913;51.992;9.228;2023-10-08T00:40:05;15.13;;;7.38;;
21503;SDS011;10913;51.992;9.228;2023-10-08T00:42:37;12.30;;;7.03;;
21503;SDS011;10913;51.992;9.228;2023-10-08T00:45:02;12.15;;;7.05;;
21503;SDS011;10913;51.992;9.228;2023-10-08T00:47:30;15.32;;;6.90;;
21503;SDS011;10913;51.992;9.228;2023-10-08T00:49:59;14.48;;;7.10;;
21503;SDS011;10913;51.992;9.228;2023-10-08T00:52:31;11.68;;;7.18;;
21503;SDS011;10913;51.992;9.228;2023-10-08T00:55:05;15.90;;;7.18;;
21503;SDS011;10913;51.992;9.228;2023-10-08T00:57:30;10.80;;;6.50;;
21503;SDS011;10913;51.992;9.228;2023-10-08T01:00:00;13.65;;;6.93;;
21503;SDS011;10913;51.992;9.228;2023-10-08T01:02:28;8.30;;;3.60;;
21503;SDS011;10913;51.992;9.228;2023-10-08T01:05:01;2.13;;;1.52;;
21503;SDS011;10913;51.992;9.228;2023-10-08T01:07:27;0.88;;;0.75;;
21503;SDS011;10913;51.992;9.228;2023-10-08T01:09:52;1.13;;;0.70;;
21503;SDS011;10913;51.992;9.228;2023-10-08T01:12:24;0.50;;;0.50;;
21503;SDS011;10913;51.992;9.228;2023-10-08T01:14:58;0.50;;;0.50;;
21503;SDS011;10913;51.992;9.228;2023-10-08T01:17:41;0.30;;;0.30;;
21503;SDS011;10913;51.992;9.228;2023-10-08T01:20:15;0.15;;;0.15;;
21503;SDS011;10913;51.992;9.228;2023-10-08T01:23:05;1.17;;;0.20;;
21503;SDS011;10913;51.992;9.228;2023-10-08T01:25:38;0.93;;;0.20;;
21503;SDS011;10913;51.992;9.228;2023-10-08T01:28:04;0.10;;;0.10;;
21503;SDS011;10913;51.992;9.228;2023-10-08T01:30:50;0.10;;;0.10;;
21503;SDS011;10913;51.992;9.228;2023-10-08T01:33:18;0.20;;;0.10;;
21503;SDS011;10913;51.992;9.228;2023-10-08T01:35:46;0.20;;;0.20;;
21503;SDS011;10913;51.992;9.228;2023-10-08T01:38:13;0.40;;;0.10;;
21503;SDS011;10913;51.992;9.228;2023-10-08T01:40:39;0.10;;;0.10;;
21503;SDS011;10913;51.992;9.228;2023-10-08T01:43:05;0.10;;;0.10;;
21503;SDS011;10913;51.992;9.228;2023-10-08T01:45:30;0.30;;;0.10;;
21503;SDS011;10913;51.992;9.228;2023-10-08T01:47:57;0.30;;;0.20;;
21503;SDS011;10913;51.992;9.228;2023-10-08T01:50:22;0.20;;;0.00;;
21503;SDS011;10913;51.992;9.228;2023-10-08T01:52:50;0.00;;;0.00;;
21503;SDS011;10913;51.992;9.228;2023-10-08T01:55:18;0.20;;;0.10;;
21503;SDS011;10913;51.992;9.228;2023-10-08T01:57:45;0.95;;;0.10;;
21503;SDS011;10913;51.992;9.228;2023-10-08T02:00:10;0.00;;;0.00;;
21503;SDS011;10913;51.992;9.228;2023-10-08T02:02:36;2.15;;;0.10;;
21503;SDS011;10913;51.992;9.228;2023-10-08T02:05:01;0.00;;;0.00;;
21503;SDS011;10913;51.992;9.228;2023-10-08T02:07:27;0.00;;;0.00;;
21503;SDS011;10913;51.992;9.228;2023-10-08T02:09:53;0.10;;;0.10;;
21503;SDS011;10913;51.992;9.228;2023-10-08T02:12:19;0.10;;;0.10;;
21503;SDS011;10913;51.992;9.228;2023-10-08T02:14:44;0.30;;;0.10;;
21503;SDS011;10913;51.992;9.228;2023-10-08T02:17:09;0.00;;;0.00;;
21503;SDS011;10913;51.992;9.228;2023-10-08T02:19:34;0.00;;;0.00;;
21503;SDS011;10913;51.992;9.228;2023-10-08T02:22:02;0.00;;;0.00;;
21503;SDS011;10913;51.992;9.228;2023-10-08T02:24:30;0.10;;;0.10;;
21503;SDS011;10913;51.992;9.228;2023-10-08T02:26:55;0.10;;;0.10;;
21503;SDS011;10913;51.992;9.228;2023-10-08T02:29:23;0.30;;;0.10;;
21503;SDS011;10913;51.992;9.228;2023-10-08T02:31:49;0.05;;;0.05;;
21503;SDS011;10913;51.992;9.228;2023-10-08T02:34:15;0.28;;;0.10;;
21503;SDS011;10913;51.992;9.228;2023-10-08T02:36:40;0.13;;;0.13;;
21503;SDS011;10913;51.992;9.228;2023-10-08T02:39:06;0.30;;;0.17;;
21503;SDS011;10913;51.992;9.228;2023-10-08T02:41:50;0.10;;;0.10;;
21503;SDS011;10913;51.992;9.228;2023-10-08T02:44:16;0.10;;;0.10;;
21503;SDS011;10913;51.992;9.228;2023-10-08T02:46:45;0.10;;;0.05;;
21503;SDS011;10913;51.992;9.228;2023-10-08T02:49:12;0.20;;;0.20;;
21503;SDS011;10913;51.992;9.228;2023-10-08T02:51:41;0.20;;;0.20;;
21503;SDS011;10913;51.992;9.228;2023-10-08T02:54:07;0.55;;;0.40;;
21503;SDS011;10913;51.992;9.228;2023-10-08T02:56:33;0.55;;;0.45;;
21503;SDS011;10913;51.992;9.228;2023-10-08T02:58:59;0.50;;;0.30;;
21503;SDS011;10913;51.992;9.228;2023-10-08T03:01:25;0.45;;;0.30;;
21503;SDS011;10913;51.992;9.228;2023-10-08T03:03:50;1.63;;;0.50;;
21503;SDS011;10913;51.992;9.228;2023-10-08T03:06:19;0.82;;;0.45;;
21503;SDS011;10913;51.992;9.228;2023-10-08T03:08:44;0.30;;;0.30;;
21503;SDS011;10913;51.992;9.228;2023-10-08T03:11:12;0.57;;;0.40;;
21503;SDS011;10913;51.992;9.228;2023-10-08T03:13:44;1.10;;;0.50;;
21503;SDS011;10913;51.992;9.228;2023-10-08T03:16:12;1.27;;;0.60;;
21503;SDS011;10913;51.992;9.228;2023-10-08T03:18:38;0.77;;;0.50;;
21503;SDS011;10913;51.992;9.228;2023-10-08T03:21:07;1.35;;;0.70;;
21503;SDS011;10913;51.992;9.228;2023-10-08T03:23:59;2.20;;;0.80;;
21503;SDS011;10913;51.992;9.228;2023-10-08T03:26:24;1.83;;;0.80;;
21503;SDS011;10913;51.992;9.228;2023-10-08T03:28:59;1.50;;;0.70;;
21503;SDS011;10913;51.992;9.228;2023-10-08T03:31:25;0.88;;;0.55;;
21503;SDS011;10913;51.992;9.228;2023-10-08T03:34:11;1.83;;;0.90;;
21503;SDS011;10913;51.992;9.228;2023-10-08T03:36:40;2.28;;;1.00;;
21503;SDS011;10913;51.992;9.228;2023-10-08T03:39:11;1.33;;;0.70;;
21503;SDS011;10913;51.992;9.228;2023-10-08T03:41:38;3.13;;;0.90;;
21503;SDS011;10913;51.992;9.228;2023-10-08T03:44:05;4.30;;;1.10;;
21503;SDS011;10913;51.992;9.228;2023-10-08T03:46:31;2.25;;;0.95;;
21503;SDS011;10913;51.992;9.228;2023-10-08T03:48:57;3.60;;;1.10;;
21503;SDS011;10913;51.992;9.228;2023-10-08T03:51:29;4.15;;;1.13;;
21503;SDS011;10913;51.992;9.228;2023-10-08T03:53:54;1.67;;;0.80;;
21503;SDS011;10913;51.992;9.228;2023-10-08T03:56:35;2.53;;;1.00;;
21503;SDS011;10913;51.992;9.228;2023-10-08T03:59:04;2.45;;;0.90;;
21503;SDS011;10913;51.992;9.228;2023-10-08T04:01:38;2.10;;;0.93;;
21503;SDS011;10913;51.992;9.228;2023-10-08T04:04:05;0.90;;;0.82;;
21503;SDS011;10913;51.992;9.228;2023-10-08T04:06:30;2.63;;;1.00;;
21503;SDS011;10913;51.992;9.228;2023-10-08T04:08:59;2.00;;;0.90;;
21503;SDS011;10913;51.992;9.228;2023-10-08T04:11:34;2.20;;;1.00;;
21503;SDS011;10913;51.992;9.228;2023-10-08T04:14:14;3.33;;;0.90;;
21503;SDS011;10913;51.992;9.228;2023-10-08T04:16:41;2.08;;;0.93;;
21503;SDS011;10913;51.992;9.228;2023-10-08T04:19:07;2.35;;;0.90;;
21503;SDS011;10913;51.992;9.228;2023-10-08T04:21:32;1.20;;;0.90;;
21503;SDS011;10913;51.992;9.228;2023-10-08T04:23:59;2.40;;;1.20;;
21503;SDS011;10913;51.992;9.228;2023-10-08T04:26:28;4.70;;;1.40;;
21503;SDS011;10913;51.992;9.228;2023-10-08T04:28:53;3.95;;;1.10;;
21503;SDS011;10913;51.992;9.228;2023-10-08T04:31:31;2.55;;;1.10;;
21503;SDS011;10913;51.992;9.228;2023-10-08T04:34:03;2.75;;;1.00;;
21503;SDS011;10913;51.992;9.228;2023-10-08T04:36:34;2.08;;;0.90;;
21503;SDS011;10913;51.992;9.228;2023-10-08T04:39:03;1.95;;;1.00;;
21503;SDS011;10913;51.992;9.228;2023-10-08T04:41:38;2.05;;;0.90;;
21503;SDS011;10913;51.992;9.228;2023-10-08T04:44:07;2.50;;;1.05;;
21503;SDS011;10913;51.992;9.228;2023-10-08T04:46:39;4.03;;;1.08;;
21503;SDS011;10913;51.992;9.228;2023-10-08T04:49:04;2.40;;;1.10;;
21503;SDS011;10913;51.992;9.228;2023-10-08T04:51:32;3.20;;;0.80;;
21503;SDS011;10913;51.992;9.228;2023-10-08T04:54:08;1.88;;;0.88;;
21503;SDS011;10913;51.992;9.228;2023-10-08T04:56:34;4.28;;;0.98;;
21503;SDS011;10913;51.992;9.228;2023-10-08T04:58:59;2.90;;;1.10;;
21503;SDS011;10913;51.992;9.228;2023-10-08T05:01:24;2.83;;;0.88;;
21503;SDS011;10913;51.992;9.228;2023-10-08T05:04:02;3.03;;;1.10;;
21503;SDS011;10913;51.992;9.228;2023-10-08T05:06:29;3.15;;;1.02;;
21503;SDS011;10913;51.992;9.228;2023-10-08T05:09:03;3.42;;;1.02;;
21503;SDS011;10913;51.992;9.228;2023-10-08T05:11:52;2.85;;;0.82;;
21503;SDS011;10913;51.992;9.228;2023-10-08T05:14:18;1.35;;;1.05;;
21503;SDS011;10913;51.992;9.228;2023-10-08T05:17:06;2.25;;;0.88;;
21503;SDS011;10913;51.992;9.228;2023-10-08T05:19:43;3.15;;;1.30;;
21503;SDS011;10913;51.992;9.228;2023-10-08T05:22:27;2.60;;;0.93;;
21503;SDS011;10913;51.992;9.228;2023-10-08T05:24:52;2.37;;;0.97;;
21503;SDS011;10913;51.992;9.228;2023-10-08T05:27:33;2.55;;;0.80;;
21503;SDS011;10913;51.992;9.228;2023-10-08T05:30:18;2.70;;;1.10;;
21503;SDS011;10913;51.992;9.228;2023-10-08T05:32:46;2.08;;;1.00;;
21503;SDS011;10913;51.992;9.228;2023-10-08T05:35:30;2.88;;;0.90;;
21503;SDS011;10913;51.992;9.228;2023-10-08T05:38:08;2.40;;;1.00;;
21503;SDS011;10913;51.992;9.228;2023-10-08T05:43:27;1.77;;;0.90;;
21503;SDS011;10913;51.992;9.228;2023-10-08T05:46:04;6.03;;;0.93;;
21503;SDS011;10913;51.992;9.228;2023-10-08T05:48:55;2.30;;;1.30;;
21503;SDS011;10913;51.992;9.228;2023-10-08T05:51:29;2.25;;;1.20;;
21503;SDS011;10913;51.992;9.228;2023-10-08T05:57:07;2.78;;;1.00;;
21503;SDS011;10913;51.992;9.228;2023-10-08T05:59:45;2.80;;;0.90;;
21503;SDS011;10913;51.992;9.228;2023-10-08T06:04:53;2.78;;;1.10;;
21503;SDS011;10913;51.992;9.228;2023-10-08T06:07:52;2.22;;;0.85;;
21503;SDS011;10913;51.992;9.228;2023-10-08T06:10:17;1.65;;;0.90;;
21503;SDS011;10913;51.992;9.228;2023-10-08T06:13:01;1.58;;;1.10;;
21503;SDS011;10913;51.992;9.228;2023-10-08T06:15:50;1.83;;;1.00;;
21503;SDS011;10913;51.992;9.228;2023-10-08T06:20:50;2.88;;;1.20;;
21503;SDS011;10913;51.992;9.228;2023-10-08T06:23:19;4.90;;;1.20;;
21503;SDS011;10913;51.992;9.228;2023-10-08T06:25:45;2.75;;;1.10;;
21503;SDS011;10913;51.992;9.228;2023-10-08T06:28:12;3.65;;;1.65;;
21503;SDS011;10913;51.992;9.228;2023-10-08T06:30:37;4.13;;;1.35;;
21503;SDS011;10913;51.992;9.228;2023-10-08T06:33:06;2.88;;;1.20;;
21503;SDS011;10913;51.992;9.228;2023-10-08T06:35:31;3.00;;;1.02;;
21503;SDS011;10913;51.992;9.228;2023-10-08T06:37:58;5.20;;;1.42;;
21503;SDS011;10913;51.992;9.228;2023-10-08T06:40:25;2.65;;;1.27;;
21503;SDS011;10913;51.992;9.228;2023-10-08T06:43:05;3.25;;;1.30;;
21503;SDS011;10913;51.992;9.228;2023-10-08T06:45:39;2.63;;;1.10;;
21503;SDS011;10913;51.992;9.228;2023-10-08T06:48:05;2.35;;;1.20;;
21503;SDS011;10913;51.992;9.228;2023-10-08T06:50:32;2.85;;;1.20;;
21503;SDS011;10913;51.992;9.228;2023-10-08T06:52:59;3.53;;;1.23;;
21503;SDS011;10913;51.992;9.228;2023-10-08T06:55:24;3.65;;;1.30;;
21503;SDS011;10913;51.992;9.228;2023-10-08T06:57:52;3.83;;;1.30;;
21503;SDS011;10913;51.992;9.228;2023-10-08T07:00:17;1.92;;;1.13;;
21503;SDS011;10913;51.992;9.228;2023-10-08T07:03:02;3.67;;;1.10;;
21503;SDS011;10913;51.992;9.228;2023-10-08T07:05:27;3.13;;;1.20;;
21503;SDS011;10913;51.992;9.228;2023-10-08T07:07:54;3.00;;;1.20;;
21503;SDS011;10913;51.992;9.228;2023-10-08T07:10:19;2.10;;;1.00;;
21503;SDS011;10913;51.992;9.228;2023-10-08T07:12:45;3.78;;;1.05;;
21503;SDS011;10913;51.992;9.228;2023-10-08T07:15:11;3.03;;;1.00;;
21503;SDS011;10913;51.992;9.228;2023-10-08T07:17:37;2.83;;;0.98;;
21503;SDS011;10913;51.992;9.228;2023-10-08T07:20:06;2.83;;;1.15;;
21503;SDS011;10913;51.992;9.228;2023-10-08T07:22:38;1.73;;;1.00;;
21503;SDS011;10913;51.992;9.228;2023-10-08T07:25:04;2.55;;;1.17;;
21503;SDS011;10913;51.992;9.228;2023-10-08T07:27:33;2.78;;;1.10;;
21503;SDS011;10913;51.992;9.228;2023-10-08T07:30:02;2.83;;;1.02;;
21503;SDS011;10913;51.992;9.228;2023-10-08T07:32:35;3.13;;;1.27;;
21503;SDS011;10913;51.992;9.228;2023-10-08T07:35:03;2.08;;;1.08;;
21503;SDS011;10913;51.992;9.228;2023-10-08T07:37:49;2.75;;;1.20;;
21503;SDS011;10913;51.992;9.228;2023-10-08T07:40:15;2.00;;;1.00;;
21503;SDS011;10913;51.992;9.228;2023-10-08T07:42:41;3.08;;;1.10;;
21503;SDS011;10913;51.992;9.228;2023-10-08T07:45:06;3.23;;;1.10;;
21503;SDS011;10913;51.992;9.228;2023-10-08T07:47:31;2.00;;;1.35;;
21503;SDS011;10913;51.992;9.228;2023-10-08T07:49:57;3.35;;;1.25;;
21503;SDS011;10913;51.992;9.228;2023-10-08T07:52:23;2.22;;;1.10;;
21503;SDS011;10913;51.992;9.228;2023-10-08T07:54:49;2.63;;;1.30;;
21503;SDS011;10913;51.992;9.228;2023-10-08T07:57:14;3.00;;;1.23;;
21503;SDS011;10913;51.992;9.228;2023-10-08T07:59:45;2.72;;;1.30;;
21503;SDS011;10913;51.992;9.228;2023-10-08T08:02:21;3.30;;;1.58;;
21503;SDS011;10913;51.992;9.228;2023-10-08T08:04:51;5.28;;;2.33;;
21503;SDS011;10913;51.992;9.228;2023-10-08T08:07:18;2.72;;;1.40;;
21503;SDS011;10913;51.992;9.228;2023-10-08T08:09:47;4.18;;;1.50;;
21503;SDS011;10913;51.992;9.228;2023-10-08T08:12:20;2.78;;;1.20;;
21503;SDS011;10913;51.992;9.228;2023-10-08T08:14:46;2.28;;;1.10;;
21503;SDS011;10913;51.992;9.228;2023-10-08T08:17:13;3.42;;;1.30;;
21503;SDS011;10913;51.992;9.228;2023-10-08T08:19:42;3.83;;;1.10;;
21503;SDS011;10913;51.992;9.228;2023-10-08T08:22:09;4.00;;;1.88;;
21503;SDS011;10913;51.992;9.228;2023-10-08T08:24:40;5.22;;;1.70;;
21503;SDS011;10913;51.992;9.228;2023-10-08T08:27:09;2.90;;;1.40;;
21503;SDS011;10913;51.992;9.228;2023-10-08T08:29:36;3.78;;;1.10;;
21503;SDS011;10913;51.992;9.228;2023-10-08T08:34:43;4.72;;;1.20;;
21503;SDS011;10913;51.992;9.228;2023-10-08T08:37:09;3.78;;;1.58;;
21503;SDS011;10913;51.992;9.228;2023-10-08T08:39:36;3.03;;;1.50;;
21503;SDS011;10913;51.992;9.228;2023-10-08T08:42:01;2.83;;;1.30;;
21503;SDS011;10913;51.992;9.228;2023-10-08T08:44:29;1.60;;;1.08;;
21503;SDS011;10913;51.992;9.228;2023-10-08T08:46:55;3.15;;;1.40;;
21503;SDS011;10913;51.992;9.228;2023-10-08T08:49:23;2.38;;;1.30;;
21503;SDS011;10913;51.992;9.228;2023-10-08T08:51:49;2.85;;;1.52;;
21503;SDS011;10913;51.992;9.228;2023-10-08T08:54:18;4.30;;;1.80;;
21503;SDS011;10913;51.992;9.228;2023-10-08T08:56:44;2.63;;;1.45;;
21503;SDS011;10913;51.992;9.228;2023-10-08T08:59:10;2.97;;;1.50;;
21503;SDS011;10913;51.992;9.228;2023-10-08T09:01:38;1.95;;;1.20;;
21503;SDS011;10913;51.992;9.228;2023-10-08T09:04:04;3.10;;;1.50;;
21503;SDS011;10913;51.992;9.228;2023-10-08T09:06:33;3.45;;;1.33;;
21503;SDS011;10913;51.992;9.228;2023-10-08T09:08:59;3.63;;;1.33;;
21503;SDS011;10913;51.992;9.228;2023-10-08T09:11:42;1.52;;;0.90;;
21503;SDS011;10913;51.992;9.228;2023-10-08T09:14:08;1.65;;;1.20;;
21503;SDS011;10913;51.992;9.228;2023-10-08T09:16:35;2.33;;;1.20;;
21503;SDS011;10913;51.992;9.228;2023-10-08T09:19:01;2.20;;;1.15;;
21503;SDS011;10913;51.992;9.228;2023-10-08T09:21:26;2.97;;;1.10;;
21503;SDS011;10913;51.992;9.228;2023-10-08T09:23:52;4.10;;;1.20;;
21503;SDS011;10913;51.992;9.228;2023-10-08T09:26:22;2.90;;;1.20;;
21503;SDS011;10913;51.992;9.228;2023-10-08T09:28:47;1.55;;;1.00;;
21503;SDS011;10913;51.992;9.228;2023-10-08T09:31:16;2.80;;;1.15;;
21503;SDS011;10913;51.992;9.228;2023-10-08T09:33:43;2.78;;;0.93;;
21503;SDS011;10913;51.992;9.228;2023-10-08T09:36:09;3.30;;;1.20;;
21503;SDS011;10913;51.992;9.228;2023-10-08T09:38:36;3.58;;;1.30;;
21503;SDS011;10913;51.992;9.228;2023-10-08T09:41:02;2.90;;;1.20;;
21503;SDS011;10913;51.992;9.228;2023-10-08T09:43:28;3.80;;;1.23;;
21503;SDS011;10913;51.992;9.228;2023-10-08T09:46:10;3.22;;;1.20;;
21503;SDS011;10913;51.992;9.228;2023-10-08T09:48:38;3.15;;;1.23;;
21503;SDS011;10913;51.992;9.228;2023-10-08T09:51:06;4.70;;;1.23;;
21503;SDS011;10913;51.992;9.228;2023-10-08T09:53:40;2.10;;;0.95;;
21503;SDS011;10913;51.992;9.228;2023-10-08T09:56:12;3.72;;;1.20;;
21503;SDS011;10913;51.992;9.228;2023-10-08T09:58:39;3.83;;;1.48;;
21503;SDS011;10913;51.992;9.228;2023-10-08T10:01:04;4.88;;;1.80;;
21503;SDS011;10913;51.992;9.228;2023-10-08T10:03:30;3.30;;;1.40;;
21503;SDS011;10913;51.992;9.228;2023-10-08T10:05:59;3.67;;;1.05;;
21503;SDS011;10913;51.992;9.228;2023-10-08T10:08:25;2.55;;;1.15;;
21503;SDS011;10913;51.992;9.228;2023-10-08T10:11:01;2.80;;;1.25;;
21503;SDS011;10913;51.992;9.228;2023-10-08T10:13:45;2.05;;;1.10;;
21503;SDS011;10913;51.992;9.228;2023-10-08T10:16:17;2.90;;;0.93;;
21503;SDS011;10913;51.992;9.228;2023-10-08T10:18:43;1.95;;;1.20;;
21503;SDS011;10913;51.992;9.228;2023-10-08T10:23:38;2.55;;;1.20;;
21503;SDS011;10913;51.992;9.228;2023-10-08T10:31:32;3.83;;;1.27;;
21503;SDS011;10913;51.992;9.228;2023-10-08T10:34:03;3.38;;;1.23;;
21503;SDS011;10913;51.992;9.228;2023-10-08T10:36:29;3.65;;;1.45;;
21503;SDS011;10913;51.992;9.228;2023-10-08T10:38:56;2.35;;;1.50;;
21503;SDS011;10913;51.992;9.228;2023-10-08T10:41:21;3.55;;;1.15;;
21503;SDS011;10913;51.992;9.228;2023-10-08T10:43:47;3.00;;;1.10;;
21503;SDS011;10913;51.992;9.228;2023-10-08T10:46:17;2.75;;;1.20;;
21503;SDS011;10913;51.992;9.228;2023-10-08T10:48:56;4.88;;;1.42;;
21503;SDS011;10913;51.992;9.228;2023-10-08T10:52:00;4.32;;;1.48;;
21503;SDS011;10913;51.992;9.228;2023-10-08T10:54:29;4.53;;;1.70;;
21503;SDS011;10913;51.992;9.228;2023-10-08T10:57:01;3.72;;;1.40;;
21503;SDS011;10913;51.992;9.228;2023-10-08T10:59:30;3.42;;;1.20;;
21503;SDS011;10913;51.992;9.228;2023-10-08T11:02:02;4.57;;;1.30;;
21503;SDS011;10913;51.992;9.228;2023-10-08T11:04:34;4.45;;;1.25;;
21503;SDS011;10913;51.992;9.228;2023-10-08T11:07:12;3.08;;;1.20;;
21503;SDS011;10913;51.992;9.228;2023-10-08T11:09:38;3.42;;;1.30;;
21503;SDS011;10913;51.992;9.228;2023-10-08T11:12:04;5.07;;;1.48;;
21503;SDS011;10913;51.992;9.228;2023-10-08T11:14:39;5.38;;;1.67;;
21503;SDS011;10913;51.992;9.228;2023-10-08T11:17:25;5.07;;;1.30;;
21503;SDS011;10913;51.992;9.228;2023-10-08T11:19:51;3.83;;;1.35;;
21503;SDS011;10913;51.992;9.228;2023-10-08T11:22:17;3.55;;;1.40;;
21503;SDS011;10913;51.992;9.228;2023-10-08T11:24:46;3.92;;;1.60;;
21503;SDS011;10913;51.992;9.228;2023-10-08T11:27:18;4.53;;;1.45;;
21503;SDS011;10913;51.992;9.228;2023-10-08T11:30:03;4.00;;;1.30;;
21503;SDS011;10913;51.992;9.228;2023-10-08T11:32:35;5.00;;;1.38;;
21503;SDS011;10913;51.992;9.228;2023-10-08T11:35:03;3.58;;;1.42;;
21503;SDS011;10913;51.992;9.228;2023-10-08T11:37:44;4.68;;;1.38;;
21503;SDS011;10913;51.992;9.228;2023-10-08T11:40:10;4.32;;;1.15;;
21503;SDS011;10913;51.992;9.228;2023-10-08T11:42:42;3.47;;;1.52;;
21503;SDS011;10913;51.992;9.228;2023-10-08T11:45:09;3.88;;;1.42;;
21503;SDS011;10913;51.992;9.228;2023-10-08T11:47:46;5.10;;;1.40;;
21503;SDS011;10913;51.992;9.228;2023-10-08T11:50:14;3.22;;;1.38;;
21503;SDS011;10913;51.992;9.228;2023-10-08T11:52:44;3.33;;;1.30;;
21503;SDS011;10913;51.992;9.228;2023-10-08T11:55:09;3.42;;;1.30;;
21503;SDS011;10913;51.992;9.228;2023-10-08T11:57:35;4.50;;;1.33;;
21503;SDS011;10913;51.992;9.228;2023-10-08T12:00:04;3.30;;;1.42;;
21503;SDS011;10913;51.992;9.228;2023-10-08T12:02:44;3.83;;;1.23;;
21503;SDS011;10913;51.992;9.228;2023-10-08T12:05:09;3.90;;;1.38;;
21503;SDS011;10913;51.992;9.228;2023-10-08T12:07:43;2.22;;;1.27;;
21503;SDS011;10913;51.992;9.228;2023-10-08T12:10:09;2.65;;;1.50;;
21503;SDS011;10913;51.992;9.228;2023-10-08T12:12:36;3.92;;;1.40;;
21503;SDS011;10913;51.992;9.228;2023-10-08T12:15:01;3.27;;;1.17;;
21503;SDS011;10913;51.992;9.228;2023-10-08T12:17:28;2.33;;;1.40;;
21503;SDS011;10913;51.992;9.228;2023-10-08T12:20:04;4.50;;;1.55;;
21503;SDS011;10913;51.992;9.228;2023-10-08T12:22:37;2.63;;;1.00;;
21503;SDS011;10913;51.992;9.228;2023-10-08T12:25:02;3.17;;;1.40;;
21503;SDS011;10913;51.992;9.228;2023-10-08T12:27:29;3.05;;;1.48;;
21503;SDS011;10913;51.992;9.228;2023-10-08T12:29:55;2.53;;;1.42;;
21503;SDS011;10913;51.992;9.228;2023-10-08T12:32:23;3.63;;;1.48;;
21503;SDS011;10913;51.992;9.228;2023-10-08T12:34:51;4.35;;;1.30;;
21503;SDS011;10913;51.992;9.228;2023-10-08T12:37:18;5.30;;;1.63;;
21503;SDS011;10913;51.992;9.228;2023-10-08T12:39:43;4.87;;;1.30;;
21503;SDS011;10913;51.992;9.228;2023-10-08T12:42:38;4.65;;;1.30;;
21503;SDS011;10913;51.992;9.228;2023-10-08T12:45:09;3.50;;;1.20;;
21503;SDS011;10913;51.992;9.228;2023-10-08T12:47:38;3.10;;;1.40;;
21503;SDS011;10913;51.992;9.228;2023-10-08T12:50:03;3.95;;;1.40;;
21503;SDS011;10913;51.992;9.228;2023-10-08T12:52:32;3.95;;;1.45;;
21503;SDS011;10913;51.992;9.228;2023-10-08T12:54:59;5.07;;;1.50;;
21503;SDS011;10913;51.992;9.228;2023-10-08T12:57:28;4.60;;;1.23;;
21503;SDS011;10913;51.992;9.228;2023-10-08T12:59:59;2.85;;;1.38;;
21503;SDS011;10913;51.992;9.228;2023-10-08T13:02:25;3.47;;;1.52;;
21503;SDS011;10913;51.992;9.228;2023-10-08T13:04:53;3.33;;;1.30;;
21503;SDS011;10913;51.992;9.228;2023-10-08T13:07:20;3.78;;;1.50;;
21503;SDS011;10913;51.992;9.228;2023-10-08T13:09:47;3.38;;;1.30;;
21503;SDS011;10913;51.992;9.228;2023-10-08T13:12:12;2.97;;;1.48;;
21503;SDS011;10913;51.992;9.228;2023-10-08T13:14:39;4.00;;;1.58;;
21503;SDS011;10913;51.992;9.228;2023-10-08T13:17:05;10.05;;;3.70;;
21503;SDS011;10913;51.992;9.228;2023-10-08T13:19:35;3.67;;;1.70;;
21503;SDS011;10913;51.992;9.228;2023-10-08T13:22:01;5.70;;;2.60;;
21503;SDS011;10913;51.992;9.228;2023-10-08T13:24:26;7.82;;;3.63;;
21503;SDS011;10913;51.992;9.228;2023-10-08T13:26:53;11.00;;;3.75;;
21503;SDS011;10913;51.992;9.228;2023-10-08T13:29:18;5.40;;;1.50;;
21503;SDS011;10913;51.992;9.228;2023-10-08T13:31:44;3.95;;;1.20;;
21503;SDS011;10913;51.992;9.228;2023-10-08T13:34:10;4.82;;;1.40;;
21503;SDS011;10913;51.992;9.228;2023-10-08T13:36:37;3.67;;;1.50;;
21503;SDS011;10913;51.992;9.228;2023-10-08T13:39:03;3.53;;;1.25;;
21503;SDS011;10913;51.992;9.228;2023-10-08T13:41:29;2.53;;;1.20;;
21503;SDS011;10913;51.992;9.228;2023-10-08T13:43:54;3.25;;;1.60;;
21503;SDS011;10913;51.992;9.228;2023-10-08T13:46:30;4.03;;;1.38;;
21503;SDS011;10913;51.992;9.228;2023-10-08T13:48:56;3.22;;;1.48;;
21503;SDS011;10913;51.992;9.228;2023-10-08T13:51:23;2.92;;;1.40;;
21503;SDS011;10913;51.992;9.228;2023-10-08T13:53:54;2.58;;;1.33;;
21503;SDS011;10913;51.992;9.228;2023-10-08T13:56:24;4.05;;;1.50;;
21503;SDS011;10913;51.992;9.228;2023-10-08T13:58:51;3.78;;;1.17;;
21503;SDS011;10913;51.992;9.228;2023-10-08T14:01:21;2.65;;;1.20;;
21503;SDS011;10913;51.992;9.228;2023-10-08T14:03:49;3.63;;;1.38;;
21503;SDS011;10913;51.992;9.228;2023-10-08T14:06:18;1.98;;;1.30;;
21503;SDS011;10913;51.992;9.228;2023-10-08T14:08:45;5.30;;;1.60;;
21503;SDS011;10913;51.992;9.228;2023-10-08T14:11:16;3.00;;;1.30;;
21503;SDS011;10913;51.992;9.228;2023-10-08T14:13:43;5.13;;;1.42;;
21503;SDS011;10913;51.992;9.228;2023-10-08T14:16:09;5.13;;;1.50;;
21503;SDS011;10913;51.992;9.228;2023-10-08T14:18:36;4.32;;;1.48;;
21503;SDS011;10913;51.992;9.228;2023-10-08T14:21:07;2.40;;;1.20;;
21503;SDS011;10913;51.992;9.228;2023-10-08T14:23:35;2.25;;;1.20;;
21503;SDS011;10913;51.992;9.228;2023-10-08T14:26:04;2.95;;;1.67;;
21503;SDS011;10913;51.992;9.228;2023-10-08T14:28:31;4.82;;;1.42;;
21503;SDS011;10913;51.992;9.228;2023-10-08T14:31:08;4.15;;;1.40;;
21503;SDS011;10913;51.992;9.228;2023-10-08T14:33:34;5.75;;;1.40;;
21503;SDS011;10913;51.992;9.228;2023-10-08T14:36:10;5.43;;;1.63;;
21503;SDS011;10913;51.992;9.228;2023-10-08T14:38:54;2.50;;;1.27;;
21503;SDS011;10913;51.992;9.228;2023-10-08T14:41:38;3.78;;;1.40;;
21503;SDS011;10913;51.992;9.228;2023-10-08T14:44:22;3.78;;;1.48;;
21503;SDS011;10913;51.992;9.228;2023-10-08T14:46:48;3.30;;;1.38;;
21503;SDS011;10913;51.992;9.228;2023-10-08T14:49:15;3.80;;;1.50;;
21503;SDS011;10913;51.992;9.228;2023-10-08T14:51:40;3.47;;;1.17;;
21503;SDS011;10913;51.992;9.228;2023-10-08T14:54:06;3.10;;;1.30;;
21503;SDS011;10913;51.992;9.228;2023-10-08T14:56:32;2.88;;;1.30;;
21503;SDS011;10913;51.992;9.228;2023-10-08T14:58:59;4.88;;;1.60;;
21503;SDS011;10913;51.992;9.228;2023-10-08T15:01:25;4.20;;;1.27;;
21503;SDS011;10913;51.992;9.228;2023-10-08T15:03:51;4.45;;;1.55;;
21503;SDS011;10913;51.992;9.228;2023-10-08T15:06:17;4.43;;;1.33;;
21503;SDS011;10913;51.992;9.228;2023-10-08T15:08:44;3.80;;;1.40;;
21503;SDS011;10913;51.992;9.228;2023-10-08T15:11:09;4.30;;;1.17;;
21503;SDS011;10913;51.992;9.228;2023-10-08T15:13:35;3.50;;;1.40;;
21503;SDS011;10913;51.992;9.228;2023-10-08T15:16:03;2.58;;;1.20;;
21503;SDS011;10913;51.992;9.228;2023-10-08T15:18:29;2.97;;;1.30;;
21503;SDS011;10913;51.992;9.228;2023-10-08T15:20:57;2.92;;;1.27;;